sensor_id;sensor_type;location;lat;lon;timestamp;temperature;humidity
68943;DHT22;60852;52.190;4.422;2023-04-25T00:01:21;8.93;69.31
68943;DHT22;60852;52.190;4.422;2023-04-25T00:03:49;8.83;68.41
68943;DHT22;60852;52.190;4.422;2023-04-25T00:06:15;8.73;68.17
68943;DHT22;60852;52.190;4.422;2023-04-25T00:08:41;8.83;68.22
68943;DHT22;60852;52.190;4.422;2023-04-25T00:11:06;8.81;67.26
68943;DHT22;60852;52.190;4.422;2023-04-25T00:13:32;8.79;66.86
68943;DHT22;60852;52.190;4.422;2023-04-25T00:15:57;8.73;66.70
68943;DHT22;60852;52.190;4.422;2023-04-25T00:18:23;8.72;66.23
68943;DHT22;60852;52.190;4.422;2023-04-25T00:20:49;8.70;66.32
68943;DHT22;60852;52.190;4.422;2023-04-25T00:23:16;8.77;66.47
68943;DHT22;60852;52.190;4.422;2023-04-25T00:25:44;8.72;65.26
68943;DHT22;60852;52.190;4.422;2023-04-25T00:28:11;8.62;64.83
68943;DHT22;60852;52.190;4.422;2023-04-25T00:30:36;8.60;64.86
68943;DHT22;60852;52.190;4.422;2023-04-25T00:33:02;8.55;63.92
68943;DHT22;60852;52.190;4.422;2023-04-25T00:35:27;8.56;64.39
68943;DHT22;60852;52.190;4.422;2023-04-25T00:37:54;8.60;64.17
68943;DHT22;60852;52.190;4.422;2023-04-25T00:40:20;8.62;63.99
68943;DHT22;60852;52.190;4.422;2023-04-25T00:42:47;8.59;63.87
68943;DHT22;60852;52.190;4.422;2023-04-25T00:45:14;8.56;62.86
68943;DHT22;60852;52.190;4.422;2023-04-25T00:47:41;8.56;62.27
68943;DHT22;60852;52.190;4.422;2023-04-25T00:50:07;8.49;61.24
68943;DHT22;60852;52.190;4.422;2023-04-25T00:52:33;8.52;61.78
68943;DHT22;60852;52.190;4.422;2023-04-25T00:54:59;8.49;61.58
68943;DHT22;60852;52.190;4.422;2023-04-25T00:57:25;8.42;61.93
68943;DHT22;60852;52.190;4.422;2023-04-25T00:59:52;8.42;62.79
68943;DHT22;60852;52.190;4.422;2023-04-25T01:02:19;8.43;63.58
68943;DHT22;60852;52.190;4.422;2023-04-25T01:04:46;8.53;64.40
68943;DHT22;60852;52.190;4.422;2023-04-25T01:07:13;8.53;64.78
68943;DHT22;60852;52.190;4.422;2023-04-25T01:09:39;8.52;64.91
68943;DHT22;60852;52.190;4.422;2023-04-25T01:12:04;8.53;65.33
68943;DHT22;60852;52.190;4.422;2023-04-25T01:14:30;8.55;65.52
68943;DHT22;60852;52.190;4.422;2023-04-25T01:16:56;8.50;66.04
68943;DHT22;60852;52.190;4.422;2023-04-25T01:19:23;8.46;66.01
68943;DHT22;60852;52.190;4.422;2023-04-25T01:21:50;8.52;66.21
68943;DHT22;60852;52.190;4.422;2023-04-25T01:24:15;8.59;65.96
68943;DHT22;60852;52.190;4.422;2023-04-25T01:26:42;8.57;65.66
68943;DHT22;60852;52.190;4.422;2023-04-25T01:29:16;8.63;65.43
68943;DHT22;60852;52.190;4.422;2023-04-25T01:31:42;8.73;65.33
68943;DHT22;60852;52.190;4.422;2023-04-25T01:34:10;8.74;65.17
68943;DHT22;60852;52.190;4.422;2023-04-25T01:36:36;8.70;65.39
68943;DHT22;60852;52.190;4.422;2023-04-25T01:39:01;8.72;64.93
68943;DHT22;60852;52.190;4.422;2023-04-25T01:41:27;8.73;65.01
68943;DHT22;60852;52.190;4.422;2023-04-25T01:43:53;8.72;65.82
68943;DHT22;60852;52.190;4.422;2023-04-25T01:46:19;8.76;66.24
68943;DHT22;60852;52.190;4.422;2023-04-25T01:48:44;8.80;66.71
68943;DHT22;60852;52.190;4.422;2023-04-25T01:51:10;8.84;67.00
68943;DHT22;60852;52.190;4.422;2023-04-25T01:53:37;8.88;66.85
68943;DHT22;60852;52.190;4.422;2023-04-25T01:56:03;8.85;63.82
68943;DHT22;60852;52.190;4.422;2023-04-25T01:58:29;8.81;63.75
68943;DHT22;60852;52.190;4.422;2023-04-25T02:00:54;8.81;63.38
68943;DHT22;60852;52.190;4.422;2023-04-25T02:03:20;8.81;63.07
68943;DHT22;60852;52.190;4.422;2023-04-25T02:05:45;8.88;63.42
68943;DHT22;60852;52.190;4.422;2023-04-25T02:08:11;8.97;63.25
68943;DHT22;60852;52.190;4.422;2023-04-25T02:10:36;8.97;62.68
68943;DHT22;60852;52.190;4.422;2023-04-25T02:13:02;8.96;62.46
68943;DHT22;60852;52.190;4.422;2023-04-25T02:15:29;8.97;63.01
68943;DHT22;60852;52.190;4.422;2023-04-25T02:17:55;8.81;63.84
68943;DHT22;60852;52.190;4.422;2023-04-25T02:20:21;8.80;64.14
68943;DHT22;60852;52.190;4.422;2023-04-25T02:22:47;8.83;64.53
68943;DHT22;60852;52.190;4.422;2023-04-25T02:25:13;8.85;65.07
68943;DHT22;60852;52.190;4.422;2023-04-25T02:27:38;8.74;63.93
68943;DHT22;60852;52.190;4.422;2023-04-25T02:30:06;8.80;63.26
68943;DHT22;60852;52.190;4.422;2023-04-25T02:32:32;8.79;63.73
68943;DHT22;60852;52.190;4.422;2023-04-25T02:35:00;8.80;64.23
68943;DHT22;60852;52.190;4.422;2023-04-25T02:37:30;8.77;64.24
68943;DHT22;60852;52.190;4.422;2023-04-25T02:39:55;8.81;64.47
68943;DHT22;60852;52.190;4.422;2023-04-25T02:42:21;8.76;64.76
68943;DHT22;60852;52.190;4.422;2023-04-25T02:44:46;8.66;65.12
68943;DHT22;60852;52.190;4.422;2023-04-25T02:47:12;8.62;66.16
68943;DHT22;60852;52.190;4.422;2023-04-25T02:49:37;8.56;66.43
68943;DHT22;60852;52.190;4.422;2023-04-25T02:52:02;8.50;66.44
68943;DHT22;60852;52.190;4.422;2023-04-25T02:54:28;8.41;67.20
68943;DHT22;60852;52.190;4.422;2023-04-25T02:56:53;8.36;68.06
68943;DHT22;60852;52.190;4.422;2023-04-25T02:59:19;8.36;70.82
68943;DHT22;60852;52.190;4.422;2023-04-25T03:01:44;8.29;71.56
68943;DHT22;60852;52.190;4.422;2023-04-25T03:04:10;8.26;72.19
68943;DHT22;60852;52.190;4.422;2023-04-25T03:06:36;8.20;71.19
68943;DHT22;60852;52.190;4.422;2023-04-25T03:09:01;8.08;66.66
68943;DHT22;60852;52.190;4.422;2023-04-25T03:11:27;8.09;65.74
68943;DHT22;60852;52.190;4.422;2023-04-25T03:13:52;8.14;67.03
68943;DHT22;60852;52.190;4.422;2023-04-25T03:16:18;8.14;67.72
68943;DHT22;60852;52.190;4.422;2023-04-25T03:18:43;8.12;67.74
68943;DHT22;60852;52.190;4.422;2023-04-25T03:21:08;8.15;66.34
68943;DHT22;60852;52.190;4.422;2023-04-25T03:23:34;8.21;66.42
68943;DHT22;60852;52.190;4.422;2023-04-25T03:25:59;8.28;65.06
68943;DHT22;60852;52.190;4.422;2023-04-25T03:28:25;8.32;63.54
68943;DHT22;60852;52.190;4.422;2023-04-25T03:30:50;8.31;63.50
68943;DHT22;60852;52.190;4.422;2023-04-25T03:33:16;8.36;64.24
68943;DHT22;60852;52.190;4.422;2023-04-25T03:35:41;8.42;64.84
68943;DHT22;60852;52.190;4.422;2023-04-25T03:38:08;8.45;64.86
68943;DHT22;60852;52.190;4.422;2023-04-25T03:40:33;8.46;64.83
68943;DHT22;60852;52.190;4.422;2023-04-25T03:42:58;8.55;64.82
68943;DHT22;60852;52.190;4.422;2023-04-25T03:45:24;8.56;65.04
68943;DHT22;60852;52.190;4.422;2023-04-25T03:47:49;8.63;64.99
68943;DHT22;60852;52.190;4.422;2023-04-25T03:50:15;8.63;64.93
68943;DHT22;60852;52.190;4.422;2023-04-25T03:52:40;8.59;64.95
68943;DHT22;60852;52.190;4.422;2023-04-25T03:55:06;8.62;64.51
68943;DHT22;60852;52.190;4.422;2023-04-25T03:57:32;8.63;64.45
68943;DHT22;60852;52.190;4.422;2023-04-25T03:59:58;8.59;64.72
68943;DHT22;60852;52.190;4.422;2023-04-25T04:02:23;8.62;65.65
68943;DHT22;60852;52.190;4.422;2023-04-25T04:04:48;8.63;66.02
68943;DHT22;60852;52.190;4.422;2023-04-25T04:07:14;8.70;66.07
68943;DHT22;60852;52.190;4.422;2023-04-25T04:09:39;8.59;66.92
68943;DHT22;60852;52.190;4.422;2023-04-25T04:12:05;8.42;68.50
68943;DHT22;60852;52.190;4.422;2023-04-25T04:14:30;8.29;69.52
68943;DHT22;60852;52.190;4.422;2023-04-25T04:16:56;8.15;70.19
68943;DHT22;60852;52.190;4.422;2023-04-25T04:19:21;8.02;70.92
68943;DHT22;60852;52.190;4.422;2023-04-25T04:21:47;7.94;71.21
68943;DHT22;60852;52.190;4.422;2023-04-25T04:24:12;7.94;71.38
68943;DHT22;60852;52.190;4.422;2023-04-25T04:26:37;7.91;71.56
68943;DHT22;60852;52.190;4.422;2023-04-25T04:29:04;7.85;71.92
68943;DHT22;60852;52.190;4.422;2023-04-25T04:31:29;7.88;71.92
68943;DHT22;60852;52.190;4.422;2023-04-25T04:33:55;7.95;72.00
68943;DHT22;60852;52.190;4.422;2023-04-25T04:36:21;7.99;70.40
68943;DHT22;60852;52.190;4.422;2023-04-25T04:38:48;7.98;67.54
68943;DHT22;60852;52.190;4.422;2023-04-25T04:41:14;8.02;64.81
68943;DHT22;60852;52.190;4.422;2023-04-25T04:43:39;8.04;64.17
68943;DHT22;60852;52.190;4.422;2023-04-25T04:46:05;8.14;64.72
68943;DHT22;60852;52.190;4.422;2023-04-25T04:48:31;8.20;65.38
68943;DHT22;60852;52.190;4.422;2023-04-25T04:51:00;8.14;67.76
68943;DHT22;60852;52.190;4.422;2023-04-25T04:53:26;8.04;69.21
68943;DHT22;60852;52.190;4.422;2023-04-25T04:55:52;8.02;69.74
68943;DHT22;60852;52.190;4.422;2023-04-25T04:58:18;7.85;69.49
68943;DHT22;60852;52.190;4.422;2023-04-25T05:00:44;7.78;69.26
68943;DHT22;60852;52.190;4.422;2023-04-25T05:03:10;7.56;68.36
68943;DHT22;60852;52.190;4.422;2023-04-25T05:05:36;7.53;69.29
68943;DHT22;60852;52.190;4.422;2023-04-25T05:08:05;7.49;69.83
68943;DHT22;60852;52.190;4.422;2023-04-25T05:10:31;7.47;69.50
68943;DHT22;60852;52.190;4.422;2023-04-25T05:12:56;7.46;66.80
68943;DHT22;60852;52.190;4.422;2023-04-25T05:15:22;7.50;65.17
68943;DHT22;60852;52.190;4.422;2023-04-25T05:17:47;7.59;66.25
68943;DHT22;60852;52.190;4.422;2023-04-25T05:20:13;7.67;66.43
68943;DHT22;60852;52.190;4.422;2023-04-25T05:22:39;7.71;68.06
68943;DHT22;60852;52.190;4.422;2023-04-25T05:25:07;7.74;69.75
68943;DHT22;60852;52.190;4.422;2023-04-25T05:27:33;7.71;69.47
68943;DHT22;60852;52.190;4.422;2023-04-25T05:29:58;7.62;70.53
68943;DHT22;60852;52.190;4.422;2023-04-25T05:32:24;7.49;71.11
68943;DHT22;60852;52.190;4.422;2023-04-25T05:34:50;7.46;72.24
68943;DHT22;60852;52.190;4.422;2023-04-25T05:37:17;7.42;72.36
68943;DHT22;60852;52.190;4.422;2023-04-25T05:39:42;7.57;72.71
68943;DHT22;60852;52.190;4.422;2023-04-25T05:42:07;7.66;73.46
68943;DHT22;60852;52.190;4.422;2023-04-25T05:44:33;7.75;73.89
68943;DHT22;60852;52.190;4.422;2023-04-25T05:46:58;7.84;74.15
68943;DHT22;60852;52.190;4.422;2023-04-25T05:49:24;7.98;74.57
68943;DHT22;60852;52.190;4.422;2023-04-25T05:51:49;8.02;74.43
68943;DHT22;60852;52.190;4.422;2023-04-25T05:54:15;7.99;74.53
68943;DHT22;60852;52.190;4.422;2023-04-25T05:56:40;7.99;74.15
68943;DHT22;60852;52.190;4.422;2023-04-25T05:59:06;7.98;73.77
68943;DHT22;60852;52.190;4.422;2023-04-25T06:01:31;8.04;73.01
68943;DHT22;60852;52.190;4.422;2023-04-25T06:03:57;8.21;74.08
68943;DHT22;60852;52.190;4.422;2023-04-25T06:06:22;8.32;72.37
68943;DHT22;60852;52.190;4.422;2023-04-25T06:08:48;8.36;69.81
68943;DHT22;60852;52.190;4.422;2023-04-25T06:11:13;8.36;67.04
68943;DHT22;60852;52.190;4.422;2023-04-25T06:13:39;8.42;66.08
68943;DHT22;60852;52.190;4.422;2023-04-25T06:16:04;8.46;64.17
68943;DHT22;60852;52.190;4.422;2023-04-25T06:18:30;8.59;63.36
68943;DHT22;60852;52.190;4.422;2023-04-25T06:20:55;8.59;62.70
68943;DHT22;60852;52.190;4.422;2023-04-25T06:23:21;8.72;63.68
68943;DHT22;60852;52.190;4.422;2023-04-25T06:25:46;8.88;63.01
68943;DHT22;60852;52.190;4.422;2023-04-25T06:28:12;8.96;63.61
68943;DHT22;60852;52.190;4.422;2023-04-25T06:30:37;9.01;64.03
68943;DHT22;60852;52.190;4.422;2023-04-25T06:33:03;9.04;64.15
68943;DHT22;60852;52.190;4.422;2023-04-25T06:35:28;9.10;64.84
68943;DHT22;60852;52.190;4.422;2023-04-25T06:37:53;9.24;65.38
68943;DHT22;60852;52.190;4.422;2023-04-25T06:40:19;9.17;65.14
68943;DHT22;60852;52.190;4.422;2023-04-25T06:42:45;8.99;64.98
68943;DHT22;60852;52.190;4.422;2023-04-25T06:45:10;9.10;65.45
68943;DHT22;60852;52.190;4.422;2023-04-25T06:47:36;9.14;65.23
68943;DHT22;60852;52.190;4.422;2023-04-25T06:50:01;9.14;63.83
68943;DHT22;60852;52.190;4.422;2023-04-25T06:52:26;9.11;64.02
68943;DHT22;60852;52.190;4.422;2023-04-25T06:54:52;8.99;63.09
68943;DHT22;60852;52.190;4.422;2023-04-25T06:57:17;9.04;64.66
68943;DHT22;60852;52.190;4.422;2023-04-25T06:59:43;9.11;63.44
68943;DHT22;60852;52.190;4.422;2023-04-25T07:02:08;9.15;61.96
68943;DHT22;60852;52.190;4.422;2023-04-25T07:04:33;9.24;61.15
68943;DHT22;60852;52.190;4.422;2023-04-25T07:06:59;9.32;60.74
68943;DHT22;60852;52.190;4.422;2023-04-25T07:09:28;9.39;59.21
68943;DHT22;60852;52.190;4.422;2023-04-25T07:11:53;9.55;58.49
68943;DHT22;60852;52.190;4.422;2023-04-25T07:14:18;9.53;57.90
68943;DHT22;60852;52.190;4.422;2023-04-25T07:16:44;9.55;58.30
68943;DHT22;60852;52.190;4.422;2023-04-25T07:19:09;9.52;58.61
68943;DHT22;60852;52.190;4.422;2023-04-25T07:21:35;9.49;58.80
68943;DHT22;60852;52.190;4.422;2023-04-25T07:24:01;9.48;57.70
68943;DHT22;60852;52.190;4.422;2023-04-25T07:26:27;9.56;57.75
68943;DHT22;60852;52.190;4.422;2023-04-25T07:28:52;9.49;56.88
68943;DHT22;60852;52.190;4.422;2023-04-25T07:31:19;9.44;58.33
68943;DHT22;60852;52.190;4.422;2023-04-25T07:33:45;9.44;59.03
68943;DHT22;60852;52.190;4.422;2023-04-25T07:36:11;9.28;60.46
68943;DHT22;60852;52.190;4.422;2023-04-25T07:38:38;9.24;60.60
68943;DHT22;60852;52.190;4.422;2023-04-25T07:41:03;9.18;61.54
68943;DHT22;60852;52.190;4.422;2023-04-25T07:43:29;9.17;61.12
68943;DHT22;60852;52.190;4.422;2023-04-25T07:45:55;9.25;60.17
68943;DHT22;60852;52.190;4.422;2023-04-25T07:48:21;9.35;61.23
68943;DHT22;60852;52.190;4.422;2023-04-25T07:50:47;9.46;58.82
68943;DHT22;60852;52.190;4.422;2023-04-25T07:53:12;9.63;59.44
68943;DHT22;60852;52.190;4.422;2023-04-25T07:55:38;9.75;58.02
68943;DHT22;60852;52.190;4.422;2023-04-25T07:58:08;9.78;59.36
68943;DHT22;60852;52.190;4.422;2023-04-25T08:00:34;9.92;60.06
68943;DHT22;60852;52.190;4.422;2023-04-25T08:03:00;9.93;61.87
68943;DHT22;60852;52.190;4.422;2023-04-25T08:05:25;9.71;61.63
68943;DHT22;60852;52.190;4.422;2023-04-25T08:07:50;9.38;62.22
68943;DHT22;60852;52.190;4.422;2023-04-25T08:10:16;9.20;60.80
68943;DHT22;60852;52.190;4.422;2023-04-25T08:12:41;8.87;61.53
68943;DHT22;60852;52.190;4.422;2023-04-25T08:15:07;9.08;62.41
68943;DHT22;60852;52.190;4.422;2023-04-25T08:17:33;9.42;61.51
68943;DHT22;60852;52.190;4.422;2023-04-25T08:19:58;9.76;59.95
68943;DHT22;60852;52.190;4.422;2023-04-25T08:22:24;9.97;59.26
68943;DHT22;60852;52.190;4.422;2023-04-25T08:24:49;9.93;58.81
68943;DHT22;60852;52.190;4.422;2023-04-25T08:27:15;10.06;59.15
68943;DHT22;60852;52.190;4.422;2023-04-25T08:29:41;10.27;58.91
68943;DHT22;60852;52.190;4.422;2023-04-25T08:32:07;10.42;57.88
68943;DHT22;60852;52.190;4.422;2023-04-25T08:34:32;10.37;56.23
68943;DHT22;60852;52.190;4.422;2023-04-25T08:36:57;10.40;55.49
68943;DHT22;60852;52.190;4.422;2023-04-25T08:39:23;10.51;55.07
68943;DHT22;60852;52.190;4.422;2023-04-25T08:41:48;10.47;56.49
68943;DHT22;60852;52.190;4.422;2023-04-25T08:44:14;10.30;57.24
68943;DHT22;60852;52.190;4.422;2023-04-25T08:46:41;10.07;57.78
68943;DHT22;60852;52.190;4.422;2023-04-25T08:49:07;9.94;59.27
68943;DHT22;60852;52.190;4.422;2023-04-25T08:51:36;10.02;58.65
68943;DHT22;60852;52.190;4.422;2023-04-25T08:54:12;10.07;59.84
68943;DHT22;60852;52.190;4.422;2023-04-25T08:56:44;10.20;58.55
68943;DHT22;60852;52.190;4.422;2023-04-25T08:59:11;10.29;59.02
68943;DHT22;60852;52.190;4.422;2023-04-25T09:01:37;10.24;58.48
68943;DHT22;60852;52.190;4.422;2023-04-25T09:04:03;10.23;58.19
68943;DHT22;60852;52.190;4.422;2023-04-25T09:06:29;10.21;58.71
68943;DHT22;60852;52.190;4.422;2023-04-25T09:09:07;9.79;64.52
68943;DHT22;60852;52.190;4.422;2023-04-25T09:11:34;9.56;66.38
68943;DHT22;60852;52.190;4.422;2023-04-25T09:14:21;9.52;65.52
68943;DHT22;60852;52.190;4.422;2023-04-25T09:21:55;9.23;65.24
68943;DHT22;60852;52.190;4.422;2023-04-25T09:24:40;9.13;64.08
68943;DHT22;60852;52.190;4.422;2023-04-25T09:27:11;9.15;65.08
68943;DHT22;60852;52.190;4.422;2023-04-25T09:29:39;9.48;65.43
68943;DHT22;60852;52.190;4.422;2023-04-25T09:34:46;9.79;62.54
68943;DHT22;60852;52.190;4.422;2023-04-25T09:37:20;9.72;62.35
68943;DHT22;60852;52.190;4.422;2023-04-25T09:39:47;9.73;63.59
68943;DHT22;60852;52.190;4.422;2023-04-25T09:42:14;9.90;63.75
68943;DHT22;60852;52.190;4.422;2023-04-25T09:44:42;9.96;63.67
68943;DHT22;60852;52.190;4.422;2023-04-25T09:47:14;10.07;62.06
68943;DHT22;60852;52.190;4.422;2023-04-25T09:49:42;10.23;62.49
68943;DHT22;60852;52.190;4.422;2023-04-25T09:52:13;10.09;62.22
68943;DHT22;60852;52.190;4.422;2023-04-25T09:54:39;9.99;62.25
68943;DHT22;60852;52.190;4.422;2023-04-25T09:57:13;9.97;61.00
68943;DHT22;60852;52.190;4.422;2023-04-25T09:59:44;10.20;61.70
68943;DHT22;60852;52.190;4.422;2023-04-25T10:02:10;10.42;59.38
68943;DHT22;60852;52.190;4.422;2023-04-25T10:04:38;10.72;59.27
68943;DHT22;60852;52.190;4.422;2023-04-25T10:07:06;11.01;59.26
68943;DHT22;60852;52.190;4.422;2023-04-25T10:09:32;10.89;57.92
68943;DHT22;60852;52.190;4.422;2023-04-25T10:12:02;10.96;57.69
68943;DHT22;60852;52.190;4.422;2023-04-25T10:14:32;11.80;53.83
68943;DHT22;60852;52.190;4.422;2023-04-25T10:16:58;12.32;50.55
68943;DHT22;60852;52.190;4.422;2023-04-25T10:19:25;12.46;48.48
68943;DHT22;60852;52.190;4.422;2023-04-25T10:22:10;12.48;48.46
68943;DHT22;60852;52.190;4.422;2023-04-25T10:24:38;12.77;50.16
68943;DHT22;60852;52.190;4.422;2023-04-25T10:27:05;12.91;49.10
68943;DHT22;60852;52.190;4.422;2023-04-25T10:29:31;12.94;49.68
68943;DHT22;60852;52.190;4.422;2023-04-25T10:31:57;12.75;49.63
68943;DHT22;60852;52.190;4.422;2023-04-25T10:34:43;12.86;50.28
68943;DHT22;60852;52.190;4.422;2023-04-25T10:37:12;12.87;49.77
68943;DHT22;60852;52.190;4.422;2023-04-25T10:39:41;12.66;49.88
68943;DHT22;60852;52.190;4.422;2023-04-25T10:42:08;12.80;50.56
68943;DHT22;60852;52.190;4.422;2023-04-25T10:44:34;12.73;49.75
68943;DHT22;60852;52.190;4.422;2023-04-25T10:47:02;12.72;48.66
68943;DHT22;60852;52.190;4.422;2023-04-25T10:49:36;12.57;50.39
68943;DHT22;60852;52.190;4.422;2023-04-25T10:52:27;12.38;52.27
68943;DHT22;60852;52.190;4.422;2023-04-25T10:54:57;12.28;52.65
68943;DHT22;60852;52.190;4.422;2023-04-25T10:57:40;12.38;52.52
68943;DHT22;60852;52.190;4.422;2023-04-25T11:00:15;12.40;54.41
68943;DHT22;60852;52.190;4.422;2023-04-25T11:02:44;11.99;51.34
68943;DHT22;60852;52.190;4.422;2023-04-25T11:05:23;11.99;52.06
68943;DHT22;60852;52.190;4.422;2023-04-25T11:07:55;11.98;52.20
68943;DHT22;60852;52.190;4.422;2023-04-25T11:10:27;11.95;53.15
68943;DHT22;60852;52.190;4.422;2023-04-25T11:12:52;11.84;53.81
68943;DHT22;60852;52.190;4.422;2023-04-25T11:15:18;11.71;53.13
68943;DHT22;60852;52.190;4.422;2023-04-25T11:17:43;11.53;53.07
68943;DHT22;60852;52.190;4.422;2023-04-25T11:20:11;11.16;52.28
68943;DHT22;60852;52.190;4.422;2023-04-25T11:22:39;11.16;51.93
68943;DHT22;60852;52.190;4.422;2023-04-25T11:25:10;11.26;52.08
68943;DHT22;60852;52.190;4.422;2023-04-25T11:27:59;11.29;52.25
68943;DHT22;60852;52.190;4.422;2023-04-25T11:30:27;11.59;53.59
68943;DHT22;60852;52.190;4.422;2023-04-25T11:32:54;11.53;49.48
68943;DHT22;60852;52.190;4.422;2023-04-25T11:35:20;11.39;49.25
68943;DHT22;60852;52.190;4.422;2023-04-25T11:37:48;11.49;48.58
68943;DHT22;60852;52.190;4.422;2023-04-25T11:40:14;11.46;48.28
68943;DHT22;60852;52.190;4.422;2023-04-25T11:42:44;11.64;49.48
68943;DHT22;60852;52.190;4.422;2023-04-25T11:45:10;11.53;49.13
68943;DHT22;60852;52.190;4.422;2023-04-25T11:47:36;11.59;49.44
68943;DHT22;60852;52.190;4.422;2023-04-25T11:50:03;11.80;50.39
68943;DHT22;60852;52.190;4.422;2023-04-25T11:52:39;11.95;50.23
68943;DHT22;60852;52.190;4.422;2023-04-25T11:57:41;11.39;48.80
68943;DHT22;60852;52.190;4.422;2023-04-25T12:00:19;11.33;49.91
68943;DHT22;60852;52.190;4.422;2023-04-25T12:02:56;11.12;53.64
68943;DHT22;60852;52.190;4.422;2023-04-25T12:05:25;11.31;55.49
68943;DHT22;60852;52.190;4.422;2023-04-25T12:07:51;11.41;55.78
68943;DHT22;60852;52.190;4.422;2023-04-25T12:10:18;11.49;54.22
68943;DHT22;60852;52.190;4.422;2023-04-25T12:12:47;11.33;53.29
68943;DHT22;60852;52.190;4.422;2023-04-25T12:15:15;11.26;53.74
68943;DHT22;60852;52.190;4.422;2023-04-25T12:17:47;11.06;50.88
68943;DHT22;60852;52.190;4.422;2023-04-25T12:20:15;10.91;53.97
68943;DHT22;60852;52.190;4.422;2023-04-25T12:22:44;11.03;52.70
68943;DHT22;60852;52.190;4.422;2023-04-25T12:25:14;11.23;50.11
68943;DHT22;60852;52.190;4.422;2023-04-25T12:28:24;11.06;52.05
68943;DHT22;60852;52.190;4.422;2023-04-25T12:33:22;11.33;55.33
68943;DHT22;60852;52.190;4.422;2023-04-25T12:35:47;11.33;54.58
68943;DHT22;60852;52.190;4.422;2023-04-25T12:38:30;11.06;55.89
68943;DHT22;60852;52.190;4.422;2023-04-25T12:40:57;10.98;56.45
68943;DHT22;60852;52.190;4.422;2023-04-25T12:43:24;11.15;58.23
68943;DHT22;60852;52.190;4.422;2023-04-25T12:45:51;11.39;57.09
68943;DHT22;60852;52.190;4.422;2023-04-25T12:48:17;11.27;56.87
68943;DHT22;60852;52.190;4.422;2023-04-25T12:50:43;11.43;55.84
68943;DHT22;60852;52.190;4.422;2023-04-25T12:53:09;11.70;57.18
68943;DHT22;60852;52.190;4.422;2023-04-25T12:55:34;11.24;57.44
68943;DHT22;60852;52.190;4.422;2023-04-25T12:58:00;10.93;57.75
68943;DHT22;60852;52.190;4.422;2023-04-25T13:00:26;10.72;58.68
68943;DHT22;60852;52.190;4.422;2023-04-25T13:02:51;10.69;58.06
68943;DHT22;60852;52.190;4.422;2023-04-25T13:05:17;10.50;57.65
68943;DHT22;60852;52.190;4.422;2023-04-25T13:07:42;10.67;58.32
68943;DHT22;60852;52.190;4.422;2023-04-25T13:10:08;10.79;58.25
68943;DHT22;60852;52.190;4.422;2023-04-25T13:12:33;10.69;58.24
68943;DHT22;60852;52.190;4.422;2023-04-25T13:14:59;10.86;57.81
68943;DHT22;60852;52.190;4.422;2023-04-25T13:17:24;10.98;56.29
68943;DHT22;60852;52.190;4.422;2023-04-25T13:19:50;10.73;57.12
68943;DHT22;60852;52.190;4.422;2023-04-25T13:22:16;10.79;57.22
68943;DHT22;60852;52.190;4.422;2023-04-25T13:24:42;11.06;55.84
68943;DHT22;60852;52.190;4.422;2023-04-25T13:27:08;11.18;53.10
68943;DHT22;60852;52.190;4.422;2023-04-25T13:29:34;11.19;51.00
68943;DHT22;60852;52.190;4.422;2023-04-25T13:32:01;11.16;51.97
68943;DHT22;60852;52.190;4.422;2023-04-25T13:34:28;10.96;51.26
68943;DHT22;60852;52.190;4.422;2023-04-25T13:36:54;10.65;53.04
68943;DHT22;60852;52.190;4.422;2023-04-25T13:39:19;10.68;53.65
68943;DHT22;60852;52.190;4.422;2023-04-25T13:41:45;10.69;54.38
68943;DHT22;60852;52.190;4.422;2023-04-25T13:44:10;10.61;55.44
68943;DHT22;60852;52.190;4.422;2023-04-25T13:46:36;10.65;55.79
68943;DHT22;60852;52.190;4.422;2023-04-25T13:49:03;10.60;56.89
68943;DHT22;60852;52.190;4.422;2023-04-25T13:51:28;10.36;57.04
68943;DHT22;60852;52.190;4.422;2023-04-25T13:53:54;10.45;57.88
68943;DHT22;60852;52.190;4.422;2023-04-25T13:56:19;10.41;56.65
68943;DHT22;60852;52.190;4.422;2023-04-25T13:58:45;10.57;56.75
68943;DHT22;60852;52.190;4.422;2023-04-25T14:01:11;10.78;57.41
68943;DHT22;60852;52.190;4.422;2023-04-25T14:03:36;10.78;56.45
68943;DHT22;60852;52.190;4.422;2023-04-25T14:06:02;10.88;57.08
68943;DHT22;60852;52.190;4.422;2023-04-25T14:08:28;11.03;55.59
68943;DHT22;60852;52.190;4.422;2023-04-25T14:10:54;10.92;54.45
68943;DHT22;60852;52.190;4.422;2023-04-25T14:13:19;10.93;55.73
68943;DHT22;60852;52.190;4.422;2023-04-25T14:15:45;10.91;53.94
68943;DHT22;60852;52.190;4.422;2023-04-25T14:18:11;10.55;56.56
68943;DHT22;60852;52.190;4.422;2023-04-25T14:20:36;10.78;56.50
68943;DHT22;60852;52.190;4.422;2023-04-25T14:23:02;10.95;55.38
68943;DHT22;60852;52.190;4.422;2023-04-25T14:25:29;11.06;54.93
68943;DHT22;60852;52.190;4.422;2023-04-25T14:27:55;11.08;54.64
68943;DHT22;60852;52.190;4.422;2023-04-25T14:30:21;10.96;55.47
68943;DHT22;60852;52.190;4.422;2023-04-25T14:32:48;10.93;55.49
68943;DHT22;60852;52.190;4.422;2023-04-25T14:35:14;11.09;54.46
68943;DHT22;60852;52.190;4.422;2023-04-25T14:37:40;10.96;53.74
68943;DHT22;60852;52.190;4.422;2023-04-25T14:40:06;10.86;53.60
68943;DHT22;60852;52.190;4.422;2023-04-25T14:42:34;10.81;53.07
68943;DHT22;60852;52.190;4.422;2023-04-25T14:44:59;10.69;52.76
68943;DHT22;60852;52.190;4.422;2023-04-25T14:47:25;10.72;54.85
68943;DHT22;60852;52.190;4.422;2023-04-25T14:49:51;10.73;52.54
68943;DHT22;60852;52.190;4.422;2023-04-25T14:52:20;10.69;53.99
68943;DHT22;60852;52.190;4.422;2023-04-25T14:54:46;10.61;54.40
68943;DHT22;60852;52.190;4.422;2023-04-25T14:57:11;10.60;54.48
68943;DHT22;60852;52.190;4.422;2023-04-25T14:59:37;10.36;55.91
68943;DHT22;60852;52.190;4.422;2023-04-25T15:02:03;10.38;55.02
68943;DHT22;60852;52.190;4.422;2023-04-25T15:04:28;10.54;56.04
68943;DHT22;60852;52.190;4.422;2023-04-25T15:06:53;10.57;54.07
68943;DHT22;60852;52.190;4.422;2023-04-25T15:09:19;10.65;54.56
68943;DHT22;60852;52.190;4.422;2023-04-25T15:11:45;10.55;54.89
68943;DHT22;60852;52.190;4.422;2023-04-25T15:14:10;10.21;56.17
68943;DHT22;60852;52.190;4.422;2023-04-25T15:16:36;10.31;57.26
68943;DHT22;60852;52.190;4.422;2023-04-25T15:19:01;10.47;57.36
68943;DHT22;60852;52.190;4.422;2023-04-25T15:21:32;10.44;57.32
68943;DHT22;60852;52.190;4.422;2023-04-25T15:23:58;10.52;56.83
68943;DHT22;60852;52.190;4.422;2023-04-25T15:26:23;10.76;57.43
68943;DHT22;60852;52.190;4.422;2023-04-25T15:28:48;10.85;57.01
68943;DHT22;60852;52.190;4.422;2023-04-25T15:31:14;10.67;56.57
68943;DHT22;60852;52.190;4.422;2023-04-25T15:33:40;10.42;54.27
68943;DHT22;60852;52.190;4.422;2023-04-25T15:36:05;10.44;55.40
68943;DHT22;60852;52.190;4.422;2023-04-25T15:38:31;10.55;56.33
68943;DHT22;60852;52.190;4.422;2023-04-25T15:40:57;10.60;56.14
68943;DHT22;60852;52.190;4.422;2023-04-25T15:43:22;10.57;55.48
68943;DHT22;60852;52.190;4.422;2023-04-25T15:45:48;10.52;52.34
68943;DHT22;60852;52.190;4.422;2023-04-25T15:48:13;10.47;54.06
68943;DHT22;60852;52.190;4.422;2023-04-25T15:50:40;10.20;55.51